Winona, KS

9:11 PM CDT on July 12, 2014 (GMT -0500)
Renner-Goodland Municipal (KGLD) Elev 3655 ft | 39.37 °N, 101.69 °W | Change Station

Current weather conditions updated 18 minutes ago

Clear
Clear
78 °F
Feels Like 78 °F
N
9
Wind Variable Wind from NNE

Tomorrow is forecast to be nearly the same temperature as today.

Today
High -- | Low -- °F
--% Chance of Precip.
Yesterday
High -- | Low -- °F
Precip. -- in
6:28 AM 9:10 PM
Waxing Gibbous, 99% visible
Pressure 30.01 in
Visibility 10.0 miles
Clouds Clear
Dew Point 63 °F
Humidity 60%
Rainfall 0.00 in
Snow Depth Not available.
UV 0 out of 12
Pollen 5.00 out of 12
Air Quality Not available.
Flu Activity No Activity
METAR KGLD 130153Z AUTO 03008KT 10SM CLR 26/17 A3015 RMK AO2 SLP162 T02560172 $

More Conditions Fewer Conditions

Pressure 30.01 in
Visibility 10.0 miles
Clouds Clear
Dew Point 63 °F
Humidity 60%
Rainfall 0.00 in
Snow Depth Not available.
UV 0 out of 12
Pollen 5.00 out of 12
Air Quality Not available.
Flu Activity No Activity
METAR KGLD 130153Z AUTO 03008KT 10SM CLR 26/17 A3015 RMK AO2 SLP162 T02560172 $

More Conditions Fewer Conditions

10-Day Weather Forecast

Almanac

Astronomy

Jul. 12, 2014 Rise Set
Actual Time 6:28 AM CDT 9:10 PM CDT
Civil Twilight 5:57 AM CDT 9:41 PM CDT
Nautical Twilight 5:18 AM CDT 10:20 PM CDT
Astronomical Twilight 4:34 AM CDT 11:05 PM CDT
Moon 9:15 PM CDT (7/12) 6:49 AM CDT (7/12)
Length of Visible Light 15h 44m
Length of Day
14h 41m
Tomorrow will be 1m 10s shorter.
Waxing Gibbous, 99% of the Moon is Illuminated
Today
Waxing Gibbous
Jul 18
Last Quarter
Jul 26
New
Aug 3
First Quarter
Aug 10
Full

Today's Extremes

State Highs State Lows

Community

WunderPhotos

Upload Photos

1,733,049 photos uploaded!

WunderBlogs® & News

Nearby

Snow Depth

Station Depth Elevation
No new snow has been reported.

Earthquake Activity

City Distance Mag. Time & Date
No recent earthquake activity has been reported nearby.
Minimum magnitude displayed is 2.5.

Coastal Water Temperatures

Place Temperature
No Stations Reporting

Nearby Weather Stations

Station Location Temp. Heat Index Dew Point Humidity Wind Precip. Elev Updated Type
MesoWest MONUMT , Monument, KS 76 °F 74 °F - - North  at  - 0.00 in / hr 3191 ft 8:00 PM CDT MADIS
KUFarms, Scott City, KS 82.9 °F 85 °F 67 °F 58% NNE  at  2.0 mph 0.00 in / hr 3123 ft 9:10 PM CDT Rapid Fire
Levant, KS 78.2 °F 80 °F 68 °F 71% NE  at  11.0 mph 0.00 in / hr 3293 ft 9:10 PM CDT Rapid Fire

Show More Stations Show Fewer Stations